createdAt,value
2023-05-03T00:00:10.590Z,2.00
2023-05-03T00:02:59.351Z,1.60
2023-05-03T00:05:28.274Z,1.80
2023-05-03T00:07:57.424Z,1.90
2023-05-03T00:10:26.120Z,1.70
2023-05-03T00:12:55.823Z,1.90
2023-05-03T00:15:24.919Z,1.90
2023-05-03T00:17:53.728Z,1.90
2023-05-03T00:20:22.510Z,1.80
2023-05-03T00:22:51.960Z,1.70
2023-05-03T00:25:20.668Z,2.20
2023-05-03T00:27:49.352Z,2.00
2023-05-03T00:30:19.568Z,2.00
2023-05-03T00:32:48.594Z,1.90
2023-05-03T00:35:17.479Z,2.10
2023-05-03T00:37:46.191Z,1.80
2023-05-03T00:40:18.845Z,2.10
2023-05-03T00:42:47.529Z,1.90
2023-05-03T00:45:16.274Z,1.90
2023-05-03T00:47:45.312Z,1.80
2023-05-03T00:50:14.402Z,2.00
2023-05-03T00:52:43.539Z,1.80
2023-05-03T00:55:12.377Z,2.10
2023-05-03T00:57:41.104Z,1.80
2023-05-03T01:00:10.919Z,1.90
2023-05-03T01:02:39.788Z,1.90
2023-05-03T01:05:09.389Z,1.60
2023-05-03T01:07:59.539Z,1.80
2023-05-03T01:10:48.950Z,2.00
2023-05-03T01:14:17.109Z,2.40
2023-05-03T01:16:54.717Z,2.10
2023-05-03T01:19:35.369Z,2.00
2023-05-03T01:22:23.789Z,1.90
2023-05-03T01:25:12.064Z,1.90
2023-05-03T01:27:42.011Z,2.00
2023-05-03T01:30:13.462Z,2.10
2023-05-03T01:33:10.082Z,1.90
2023-05-03T01:35:54.851Z,2.20
2023-05-03T01:38:24.112Z,2.10
2023-05-03T01:40:56.033Z,1.90
2023-05-03T01:43:25.217Z,2.40
2023-05-03T01:45:54.225Z,2.00
2023-05-03T01:48:22.904Z,2.10
2023-05-03T01:50:51.606Z,1.90
2023-05-03T01:53:20.349Z,2.00
2023-05-03T01:55:49.048Z,2.20
2023-05-03T01:58:17.711Z,2.30
2023-05-03T02:00:49.542Z,2.20
2023-05-03T02:03:19.329Z,2.60
2023-05-03T02:05:48.840Z,2.50
2023-05-03T02:08:17.469Z,3.70
2023-05-03T02:10:46.159Z,4.30
2023-05-03T02:13:15.255Z,3.10
2023-05-03T02:15:43.874Z,3.20
2023-05-03T02:18:12.540Z,3.00
2023-05-03T02:20:45.236Z,3.00
2023-05-03T02:23:14.651Z,2.90
2023-05-03T02:25:43.273Z,2.90
2023-05-03T02:28:11.993Z,2.50
2023-05-03T02:30:40.870Z,2.90
2023-05-03T02:33:09.683Z,2.50
2023-05-03T02:35:38.642Z,2.20
2023-05-03T02:38:07.728Z,2.30
2023-05-03T02:40:36.454Z,3.60
2023-05-03T02:43:05.697Z,2.90
2023-05-03T02:45:36.970Z,3.50
2023-05-03T02:48:06.286Z,3.40
2023-05-03T02:50:35.032Z,4.00
2023-05-03T02:53:04.557Z,3.10
2023-05-03T02:55:33.371Z,3.30
2023-05-03T02:58:02.598Z,3.10
2023-05-03T03:00:31.334Z,3.00
2023-05-03T03:03:00.101Z,2.70
2023-05-03T03:05:29.338Z,3.00
2023-05-03T03:07:58.204Z,3.10
2023-05-03T03:10:27.655Z,3.40
2023-05-03T03:12:56.364Z,3.50
2023-05-03T03:15:28.665Z,3.10
2023-05-03T03:17:58.458Z,3.30
2023-05-03T03:20:27.593Z,3.10
2023-05-03T03:22:56.359Z,3.80
2023-05-03T03:25:25.118Z,3.50
2023-05-03T03:27:54.180Z,2.80
2023-05-03T03:30:22.838Z,2.90
2023-05-03T03:33:00.167Z,3.50
2023-05-03T03:35:32.683Z,3.20
2023-05-03T03:38:01.594Z,3.50
2023-05-03T03:40:30.460Z,3.00
2023-05-03T03:42:59.402Z,3.20
2023-05-03T03:45:28.131Z,3.20
2023-05-03T03:47:58.372Z,3.90
2023-05-03T03:50:27.536Z,3.60
2023-05-03T03:52:56.259Z,3.40
2023-05-03T03:55:24.973Z,3.60
2023-05-03T03:57:54.100Z,4.10
2023-05-03T04:00:23.861Z,3.90
2023-05-03T04:02:53.823Z,3.70
2023-05-03T04:05:22.629Z,4.20
2023-05-03T04:07:51.857Z,3.30
2023-05-03T04:10:21.102Z,3.60
2023-05-03T04:12:50.466Z,4.40
2023-05-03T04:15:19.381Z,3.20
2023-05-03T04:17:49.713Z,3.30
2023-05-03T04:20:19.367Z,3.30
2023-05-03T04:22:49.913Z,3.60
2023-05-03T04:25:19.561Z,3.50
2023-05-03T04:27:54.411Z,3.80
2023-05-03T04:30:23.454Z,3.50
2023-05-03T04:32:54.575Z,3.60
2023-05-03T04:35:24.440Z,3.90
2023-05-03T04:37:53.305Z,3.60
2023-05-03T04:40:24.200Z,3.70
2023-05-03T04:43:02.287Z,3.40
2023-05-03T04:45:31.957Z,3.70
2023-05-03T04:48:01.194Z,4.60
2023-05-03T04:50:29.883Z,4.30
2023-05-03T04:52:59.168Z,4.70
2023-05-03T04:55:29.090Z,4.00
2023-05-03T04:57:58.194Z,7.10
2023-05-03T05:00:27.001Z,4.20
2023-05-03T05:05:30.053Z,4.10
2023-05-03T05:08:00.829Z,3.80
2023-05-03T05:10:39.115Z,4.00
2023-05-03T05:13:08.275Z,4.90
2023-05-03T05:15:37.387Z,4.10
2023-05-03T05:18:06.371Z,3.90
2023-05-03T05:20:36.196Z,4.30
2023-05-03T05:23:05.055Z,4.30
2023-05-03T05:25:33.884Z,4.00
2023-05-03T05:28:03.888Z,4.50
2023-05-03T05:30:33.195Z,5.40
2023-05-03T05:33:03.738Z,3.60
2023-05-03T05:35:33.913Z,3.60
2023-05-03T05:38:02.855Z,3.50
2023-05-03T05:40:31.925Z,4.20
2023-05-03T05:43:01.913Z,3.60
2023-05-03T05:45:32.054Z,3.70
2023-05-03T05:48:01.047Z,3.70
2023-05-03T05:50:31.648Z,3.10
2023-05-03T05:53:03.682Z,3.60
2023-05-03T05:55:36.481Z,4.20
2023-05-03T05:58:05.606Z,3.50
2023-05-03T06:00:42.248Z,4.20
2023-05-03T06:03:10.977Z,3.90
2023-05-03T06:05:40.328Z,4.40
2023-05-03T06:08:11.586Z,3.90
2023-05-03T06:10:40.366Z,4.30
2023-05-03T06:13:10.114Z,3.90
2023-05-03T06:15:41.179Z,4.20
2023-05-03T06:18:09.868Z,3.20
2023-05-03T06:20:38.591Z,3.50
2023-05-03T06:23:07.534Z,3.70
2023-05-03T06:25:38.553Z,3.60
2023-05-03T06:28:07.537Z,3.30
2023-05-03T06:30:37.573Z,3.50
2023-05-03T06:33:13.900Z,3.60
2023-05-03T06:35:43.896Z,3.40
2023-05-03T06:38:12.712Z,4.10
2023-05-03T06:40:41.679Z,3.20
2023-05-03T06:43:10.466Z,3.80
2023-05-03T06:45:44.651Z,3.40
2023-05-03T06:48:13.584Z,2.80
2023-05-03T06:50:42.440Z,3.30
2023-05-03T06:53:11.198Z,3.10
2023-05-03T06:55:40.070Z,2.80
2023-05-03T06:58:11.772Z,2.70
2023-05-03T07:00:41.266Z,3.30
2023-05-03T07:03:10.035Z,3.20
2023-05-03T07:05:38.841Z,3.50
2023-05-03T07:08:07.600Z,2.40
2023-05-03T07:10:36.665Z,2.20
2023-05-03T07:13:05.401Z,2.90
2023-05-03T07:15:34.111Z,3.60
2023-05-03T07:18:03.382Z,2.70
2023-05-03T07:20:32.172Z,2.60
2023-05-03T07:23:01.888Z,3.20
2023-05-03T07:25:31.159Z,2.30
2023-05-03T07:28:00.509Z,3.00
2023-05-03T07:30:29.686Z,2.90
2023-05-03T07:32:58.509Z,2.80
2023-05-03T07:35:27.452Z,3.60
2023-05-03T07:37:57.071Z,2.60
2023-05-03T07:40:25.976Z,2.30
2023-05-03T07:42:54.996Z,2.90
2023-05-03T07:45:24.062Z,3.40
2023-05-03T07:47:53.207Z,3.90
2023-05-03T07:50:22.352Z,8.10
2023-05-03T07:52:52.079Z,4.70
2023-05-03T07:55:21.143Z,2.30
2023-05-03T07:57:51.196Z,2.70
2023-05-03T08:00:20.324Z,5.90
2023-05-03T08:02:49.162Z,9.00
2023-05-03T08:05:18.312Z,3.30
2023-05-03T08:07:47.105Z,2.00
2023-05-03T08:10:16.363Z,2.10
2023-05-03T08:12:45.935Z,2.10
2023-05-03T08:15:14.661Z,2.30
2023-05-03T08:17:45.406Z,8.00
2023-05-03T08:20:14.702Z,10.30
2023-05-03T08:22:45.375Z,6.60
2023-05-03T08:25:14.185Z,5.20
2023-05-03T08:27:42.871Z,2.30
2023-05-03T08:30:12.054Z,7.40
2023-05-03T08:32:40.758Z,2.60
2023-05-03T08:35:10.181Z,2.00
2023-05-03T08:37:43.531Z,2.40
2023-05-03T08:40:14.165Z,1.90
2023-05-03T08:42:46.653Z,2.10
2023-05-03T08:45:17.250Z,1.90
2023-05-03T08:47:46.446Z,2.00
2023-05-03T08:50:16.129Z,2.10
2023-05-03T08:52:44.992Z,1.60
2023-05-03T08:55:14.176Z,1.90
2023-05-03T08:57:43.036Z,1.90
2023-05-03T09:00:13.319Z,1.40
2023-05-03T09:02:42.449Z,1.50
2023-05-03T09:05:17.048Z,1.40
2023-05-03T09:08:03.970Z,1.90
2023-05-03T09:10:37.088Z,2.00
2023-05-03T09:13:07.784Z,1.70
2023-05-03T09:15:37.412Z,1.40
2023-05-03T09:18:13.785Z,2.40
2023-05-03T09:20:51.256Z,2.00
2023-05-03T09:23:26.264Z,2.50
2023-05-03T09:25:55.189Z,2.30
2023-05-03T09:28:24.145Z,2.20
2023-05-03T09:31:11.495Z,2.40
2023-05-03T09:33:41.510Z,2.20
2023-05-03T09:36:11.729Z,1.90
2023-05-03T09:38:40.416Z,2.10
2023-05-03T09:41:09.130Z,1.80
2023-05-03T09:43:50.486Z,2.20
2023-05-03T09:46:19.753Z,2.00
2023-05-03T09:48:50.223Z,2.10
2023-05-03T09:51:20.155Z,1.90
2023-05-03T09:53:49.211Z,1.50
2023-05-03T09:56:20.949Z,1.90
2023-05-03T09:58:49.627Z,1.80
2023-05-03T10:01:19.218Z,1.80
2023-05-03T10:03:59.758Z,2.00
2023-05-03T10:06:36.655Z,1.90
2023-05-03T10:09:20.886Z,2.00
2023-05-03T10:11:59.087Z,2.60
2023-05-03T10:14:28.252Z,2.20
2023-05-03T10:17:04.667Z,2.60
2023-05-03T10:19:46.403Z,1.90
2023-05-03T10:22:15.082Z,1.90
2023-05-03T10:25:02.886Z,2.20
2023-05-03T10:27:46.861Z,2.50
2023-05-03T10:30:29.076Z,1.80
2023-05-03T10:32:57.891Z,1.90
2023-05-03T10:35:30.072Z,2.00
2023-05-03T10:37:58.808Z,1.90
2023-05-03T10:40:43.366Z,1.90
2023-05-03T10:43:30.705Z,1.90
2023-05-03T10:46:09.052Z,2.10
2023-05-03T10:48:38.165Z,1.80
2023-05-03T10:51:37.285Z,1.90
2023-05-03T10:54:06.277Z,1.80
2023-05-03T10:56:48.204Z,1.70
2023-05-03T10:59:17.070Z,1.90
2023-05-03T11:01:47.432Z,1.80
2023-05-03T11:04:42.204Z,1.70
2023-05-03T11:07:11.133Z,2.00
2023-05-03T11:09:39.814Z,1.70
2023-05-03T11:12:09.029Z,1.50
2023-05-03T11:14:39.913Z,1.50
2023-05-03T11:17:13.892Z,2.20
2023-05-03T11:19:45.116Z,1.70
2023-05-03T11:22:13.975Z,1.30
2023-05-03T11:24:42.670Z,1.20
2023-05-03T11:27:16.440Z,1.60
2023-05-03T11:29:49.620Z,2.00
2023-05-03T11:32:19.425Z,1.60
2023-05-03T11:34:48.591Z,1.70
2023-05-03T11:37:17.290Z,1.40
2023-05-03T11:39:47.962Z,1.40
2023-05-03T11:42:16.839Z,1.40
2023-05-03T11:44:45.528Z,1.70
2023-05-03T11:47:14.329Z,1.90
2023-05-03T11:49:56.096Z,1.70
2023-05-03T11:52:27.578Z,2.00
2023-05-03T11:54:56.587Z,1.80
2023-05-03T11:57:25.747Z,1.80
2023-05-03T11:59:55.835Z,1.70
2023-05-03T12:02:24.932Z,2.70
2023-05-03T12:04:57.752Z,1.40
2023-05-03T12:07:27.311Z,1.80
2023-05-03T12:10:10.310Z,1.60
2023-05-03T12:12:58.153Z,1.50
2023-05-03T12:15:40.762Z,1.50
2023-05-03T12:18:12.984Z,1.70
2023-05-03T12:21:29.143Z,1.50
2023-05-03T12:23:31.814Z,1.60
2023-05-03T12:26:05.213Z,1.30
2023-05-03T12:28:34.393Z,1.40
2023-05-03T12:31:05.484Z,1.50
2023-05-03T12:33:36.335Z,1.50
2023-05-03T12:36:09.715Z,1.50
2023-05-03T12:38:38.852Z,1.50
2023-05-03T12:41:09.191Z,1.60
2023-05-03T12:43:38.270Z,1.90
2023-05-03T12:46:32.320Z,1.70
2023-05-03T12:48:58.930Z,1.60
2023-05-03T12:51:33.202Z,1.30
2023-05-03T12:54:02.657Z,1.80
2023-05-03T12:56:32.946Z,1.40
2023-05-03T12:59:31.657Z,1.60
2023-05-03T13:05:10.873Z,1.50
2023-05-03T13:07:17.143Z,1.70
2023-05-03T13:12:36.489Z,1.50
2023-05-03T13:15:06.524Z,1.70
2023-05-03T13:17:35.724Z,1.70
2023-05-03T13:20:08.373Z,2.00
2023-05-03T13:22:37.089Z,1.60
2023-05-03T13:25:07.307Z,1.90
2023-05-03T13:27:36.151Z,1.60
2023-05-03T13:30:05.594Z,1.60
2023-05-03T13:32:34.505Z,1.80
2023-05-03T13:35:05.441Z,1.90
2023-05-03T13:37:34.613Z,1.70
2023-05-03T13:40:03.715Z,1.80
2023-05-03T13:42:33.352Z,1.80
2023-05-03T13:45:02.339Z,1.90
2023-05-03T13:47:47.135Z,1.50
2023-05-03T13:50:20.354Z,1.50
2023-05-03T13:52:49.073Z,1.60
2023-05-03T13:55:17.746Z,2.10
2023-05-03T13:57:46.519Z,1.80
2023-05-03T14:00:16.439Z,1.90
2023-05-03T14:02:45.190Z,2.00
2023-05-03T14:05:14.905Z,1.70
2023-05-03T14:07:43.676Z,2.20
2023-05-03T14:10:12.874Z,2.30
2023-05-03T14:12:42.045Z,1.70
2023-05-03T14:15:11.564Z,2.10
2023-05-03T14:17:40.310Z,1.70
2023-05-03T14:20:12.169Z,1.50
2023-05-03T14:22:41.739Z,1.90
2023-05-03T14:25:10.803Z,2.00
2023-05-03T14:27:39.544Z,2.30
2023-05-03T14:30:10.082Z,2.40
2023-05-03T14:32:38.901Z,2.20
2023-05-03T14:35:07.973Z,1.90
2023-05-03T14:37:37.268Z,1.70
2023-05-03T14:40:08.167Z,2.00
2023-05-03T14:42:37.092Z,2.00
2023-05-03T14:45:08.104Z,1.90
2023-05-03T14:47:39.185Z,2.50
2023-05-03T14:50:08.741Z,1.90
2023-05-03T14:52:38.191Z,3.00
2023-05-03T14:55:08.119Z,2.30
2023-05-03T14:57:38.328Z,2.10
2023-05-03T15:00:14.305Z,2.80
2023-05-03T15:02:43.319Z,2.30
2023-05-03T15:05:13.097Z,2.30
2023-05-03T15:07:41.793Z,2.10
2023-05-03T15:10:10.780Z,2.60
2023-05-03T15:12:39.757Z,2.10
2023-05-03T15:15:12.412Z,2.50
2023-05-03T15:17:41.159Z,2.70
2023-05-03T15:20:10.754Z,2.40
2023-05-03T15:22:39.596Z,2.40
2023-05-03T15:25:08.895Z,2.50
2023-05-03T15:27:37.594Z,2.60
2023-05-03T15:30:07.705Z,2.90
2023-05-03T15:32:36.721Z,2.20
2023-05-03T15:35:06.160Z,2.80
2023-05-03T15:37:37.333Z,2.30
2023-05-03T15:40:12.151Z,2.90
2023-05-03T15:42:41.083Z,2.90
2023-05-03T15:45:10.963Z,2.40
2023-05-03T15:47:39.713Z,3.30
2023-05-03T15:50:09.234Z,3.30
2023-05-03T15:52:38.057Z,2.50
2023-05-03T15:55:09.177Z,2.70
2023-05-03T15:57:38.064Z,2.90
2023-05-03T16:00:09.387Z,2.70
2023-05-03T16:02:38.327Z,2.60
2023-05-03T16:05:07.545Z,2.70
2023-05-03T16:07:36.815Z,3.70
2023-05-03T16:10:06.874Z,3.20
2023-05-03T16:12:36.185Z,2.70
2023-05-03T16:15:05.584Z,3.20
2023-05-03T16:17:36.808Z,3.00
2023-05-03T16:20:08.182Z,3.10
2023-05-03T16:22:38.222Z,3.40
2023-05-03T16:25:13.228Z,2.50
2023-05-03T16:27:42.014Z,2.50
2023-05-03T16:30:11.311Z,2.90
2023-05-03T16:32:40.399Z,3.20
2023-05-03T16:35:09.348Z,2.90
2023-05-03T16:37:38.046Z,3.00
2023-05-03T16:40:11.568Z,3.50
2023-05-03T16:42:41.668Z,2.70
2023-05-03T16:45:16.082Z,3.10
2023-05-03T16:47:47.144Z,3.10
2023-05-03T16:50:18.592Z,2.90
2023-05-03T16:52:47.303Z,2.60
2023-05-03T16:55:22.032Z,2.60
2023-05-03T16:57:50.783Z,2.80
2023-05-03T17:00:20.972Z,2.70
2023-05-03T17:02:49.844Z,3.30
2023-05-03T17:05:20.518Z,3.10
2023-05-03T17:07:49.212Z,2.90
2023-05-03T17:10:17.960Z,3.00
2023-05-03T17:12:49.889Z,3.40
2023-05-03T17:15:18.867Z,3.00
2023-05-03T17:17:47.796Z,2.80
2023-05-03T17:20:17.035Z,2.90
2023-05-03T17:22:45.852Z,3.10
2023-05-03T17:25:14.549Z,3.20
2023-05-03T17:27:44.051Z,3.20
2023-05-03T17:30:14.111Z,3.10
2023-05-03T17:32:42.987Z,3.30
2023-05-03T17:35:12.371Z,2.80
2023-05-03T17:37:41.289Z,3.30
2023-05-03T17:40:10.754Z,3.50
2023-05-03T17:42:39.507Z,3.60
2023-05-03T17:45:09.919Z,3.10
2023-05-03T17:47:38.810Z,3.40
2023-05-03T17:50:08.386Z,2.60
2023-05-03T17:52:37.055Z,2.60
2023-05-03T17:55:06.631Z,3.10
2023-05-03T17:57:37.585Z,2.90
2023-05-03T18:00:07.186Z,3.10
2023-05-03T18:02:36.123Z,2.70
2023-05-03T18:05:05.122Z,3.00
2023-05-03T18:07:33.928Z,4.30
2023-05-03T18:10:02.797Z,3.00
2023-05-03T18:12:32.189Z,2.70
2023-05-03T18:15:00.923Z,2.60
2023-05-03T18:17:30.465Z,2.90
2023-05-03T18:19:59.228Z,2.50
2023-05-03T18:22:27.941Z,2.80
2023-05-03T18:25:02.025Z,2.70
2023-05-03T18:27:30.771Z,2.50
2023-05-03T18:29:59.453Z,3.10
2023-05-03T18:32:28.205Z,2.60
2023-05-03T18:34:57.048Z,3.20
2023-05-03T18:37:25.720Z,2.80
2023-05-03T18:39:54.798Z,2.70
2023-05-03T18:42:23.573Z,3.10
2023-05-03T18:44:52.192Z,2.90
2023-05-03T18:47:21.976Z,2.70
2023-05-03T18:49:53.096Z,2.50
2023-05-03T18:52:23.110Z,3.00
2023-05-03T18:54:51.874Z,3.10
2023-05-03T18:57:20.623Z,2.80
2023-05-03T18:59:59.866Z,2.60
2023-05-03T19:02:31.530Z,2.40
2023-05-03T19:05:00.780Z,3.20
2023-05-03T19:07:29.910Z,2.60
2023-05-03T19:09:58.611Z,2.80
2023-05-03T19:12:27.666Z,2.70
2023-05-03T19:14:56.622Z,2.70
2023-05-03T19:17:25.427Z,2.80
2023-05-03T19:19:54.401Z,2.60
2023-05-03T19:22:23.094Z,2.50
2023-05-03T19:24:51.778Z,2.50
2023-05-03T19:27:20.965Z,2.30
2023-05-03T19:29:49.751Z,2.70
2023-05-03T19:32:18.510Z,3.20
2023-05-03T19:34:47.436Z,2.90
2023-05-03T19:37:16.255Z,2.90
2023-05-03T19:39:45.121Z,2.40
2023-05-03T19:42:13.794Z,2.50
2023-05-03T19:44:42.537Z,2.40
2023-05-03T19:47:11.222Z,2.70
2023-05-03T19:49:40.534Z,2.70
2023-05-03T19:52:09.432Z,2.90
2023-05-03T19:54:38.143Z,3.60
2023-05-03T19:57:07.938Z,2.50
2023-05-03T19:59:36.797Z,2.90
2023-05-03T20:02:05.816Z,2.40
2023-05-03T20:04:35.055Z,2.70
2023-05-03T20:07:04.155Z,2.90
2023-05-03T20:09:33.107Z,2.50
2023-05-03T20:12:02.381Z,2.80
2023-05-03T20:14:32.543Z,3.00
2023-05-03T20:17:01.649Z,3.00
2023-05-03T20:19:30.385Z,2.80
2023-05-03T20:21:59.163Z,2.90
2023-05-03T20:24:27.926Z,2.50
2023-05-03T20:26:56.646Z,2.40
2023-05-03T20:29:25.422Z,2.70
2023-05-03T20:31:54.162Z,2.40
2023-05-03T20:34:22.921Z,2.60
2023-05-03T20:36:52.343Z,2.40
2023-05-03T20:39:21.050Z,2.50
2023-05-03T20:41:49.699Z,2.70
2023-05-03T20:44:18.497Z,2.40
2023-05-03T20:46:47.185Z,2.90
2023-05-03T20:49:15.931Z,3.20
2023-05-03T20:51:44.635Z,2.60
2023-05-03T20:54:13.569Z,2.20
2023-05-03T20:56:42.246Z,3.20
2023-05-03T20:59:10.944Z,2.20
2023-05-03T21:01:41.037Z,2.50
2023-05-03T21:04:09.888Z,2.60
2023-05-03T21:06:38.589Z,2.70
2023-05-03T21:09:07.300Z,3.10
2023-05-03T21:11:36.209Z,2.20
2023-05-03T21:14:04.869Z,2.30
2023-05-03T21:16:33.609Z,2.70
2023-05-03T21:19:03.916Z,2.70
2023-05-03T21:21:33.227Z,2.60
2023-05-03T21:24:02.440Z,2.40
2023-05-03T21:26:31.401Z,2.50
2023-05-03T21:29:00.489Z,2.70
2023-05-03T21:31:29.201Z,2.30
2023-05-03T21:33:58.440Z,2.80
2023-05-03T21:36:27.145Z,2.70
2023-05-03T21:38:55.878Z,2.70
2023-05-03T21:41:24.558Z,2.70
2023-05-03T21:43:53.290Z,2.50
2023-05-03T21:46:22.853Z,2.70
2023-05-03T21:48:51.756Z,2.70
2023-05-03T21:51:22.365Z,2.80
2023-05-03T21:53:51.001Z,2.80
2023-05-03T21:56:19.648Z,2.20
2023-05-03T21:58:48.893Z,2.80
2023-05-03T22:01:21.736Z,2.90
2023-05-03T22:03:50.714Z,3.00
2023-05-03T22:06:19.704Z,2.50
2023-05-03T22:08:48.602Z,2.50
2023-05-03T22:11:17.441Z,2.80
2023-05-03T22:14:03.169Z,2.50
2023-05-03T22:16:38.041Z,2.80
2023-05-03T22:19:08.050Z,2.90
2023-05-03T22:21:36.978Z,2.80
2023-05-03T22:24:06.444Z,2.40
2023-05-03T22:26:36.406Z,2.70
2023-05-03T22:29:05.515Z,2.70
2023-05-03T22:31:34.427Z,2.50
2023-05-03T22:34:03.956Z,2.80
2023-05-03T22:36:32.928Z,2.80
2023-05-03T22:39:05.516Z,2.60
2023-05-03T22:41:34.593Z,3.40
2023-05-03T22:44:03.880Z,2.50
2023-05-03T22:46:32.801Z,2.60
2023-05-03T22:49:02.435Z,2.80
2023-05-03T22:51:32.671Z,2.60
2023-05-03T22:54:01.525Z,2.50
2023-05-03T22:56:30.633Z,2.50
2023-05-03T22:58:59.647Z,2.70
2023-05-03T23:01:28.706Z,2.20
2023-05-03T23:03:58.138Z,2.40
2023-05-03T23:06:27.402Z,2.30
2023-05-03T23:08:56.678Z,2.10
2023-05-03T23:11:25.704Z,2.40
2023-05-03T23:13:54.610Z,2.50
2023-05-03T23:16:23.643Z,2.30
2023-05-03T23:18:54.234Z,2.40
2023-05-03T23:21:24.924Z,2.50
2023-05-03T23:23:53.808Z,2.60
2023-05-03T23:26:22.704Z,2.50
2023-05-03T23:28:52.282Z,2.60
2023-05-03T23:31:21.799Z,2.70
2023-05-03T23:33:51.260Z,2.40
2023-05-03T23:36:20.082Z,2.70
2023-05-03T23:38:51.057Z,2.40
2023-05-03T23:41:19.979Z,2.50
2023-05-03T23:43:49.112Z,2.20
2023-05-03T23:46:17.994Z,2.80
2023-05-03T23:48:46.852Z,2.70
2023-05-03T23:51:15.777Z,2.50
2023-05-03T23:53:44.666Z,2.40
2023-05-03T23:56:13.904Z,2.60
2023-05-03T23:58:42.878Z,2.50
